Back to Top

Language: 

My Weather Underground Personal Weather Station Historical Data with Graphs...

Delerius Weather Station Historical Data
Daily Summary for January 28, 2018 Units:  Metric    English   Both
« Previous Day
Next Day »
Daily Weekly Monthly Yearly Custom
  High: Low: Average:
Temperature: 14.4 °C 8 °C 11.1 °C
Dew Point: 11.3 °C 5.4 °C 8.4 °C
Humidity: 93 % 79 % 84 %
Wind Speed: 38.6 km/h 4.8 km/h 19.6 km/h
Wind Gust: 56.3 km/h - -
Wind:- - WSW
Pressure: 1024.9 hPa 1021.2 hPa -
Precipitation: 0 mm    
Historical Graphs
 
 
Tabular Data for January 28, 2018
Time Temperature Dew Point Pressure Wind Wind Speed Wind Gust Humidity Rainfall Rate (Hourly) solar Conditions
00:04 8.8 °C 5.7 °C 1022.6 hPa West 20.9 km/h 40.2 km/h 81 % 0 mm 0 W/m2
00:09 8.8 °C 5.7 °C 1022.9 hPa West 17.7 km/h 29 km/h 81 % 0 mm 0 W/m2
00:14 8.8 °C 5.7 °C 1022.9 hPa West 22.5 km/h 35.4 km/h 81 % 0 mm 0 W/m2
00:19 8.8 °C 5.7 °C 1022.9 hPa West 19.3 km/h 29 km/h 81 % 0 mm 0 W/m2
00:24 8.7 °C 5.6 °C 1022.9 hPa West 20.9 km/h 40.2 km/h 81 % 0 mm 0 W/m2
00:29 8.7 °C 5.6 °C 1022.9 hPa West 19.3 km/h 30.6 km/h 81 % 0 mm 0 W/m2
00:34 8.6 °C 5.5 °C 1022.9 hPa West 19.3 km/h 30.6 km/h 81 % 0 mm 0 W/m2
00:39 8.5 °C 5.4 °C 1022.6 hPa West 20.9 km/h 30.6 km/h 81 % 0 mm 0 W/m2
00:44 8.4 °C 5.5 °C 1022.6 hPa West 25.7 km/h 37 km/h 82 % 0 mm 0 W/m2
00:49 8.3 °C 5.4 °C 1022.6 hPa West 22.5 km/h 40.2 km/h 82 % 0 mm 0 W/m2
00:54 8.3 °C 5.4 °C 1022.9 hPa West 24.1 km/h 38.6 km/h 82 % 0 mm 0 W/m2
00:59 8.3 °C 5.6 °C 1023.2 hPa West 19.3 km/h 29 km/h 83 % 0 mm 0 W/m2
01:04 8.2 °C 5.5 °C 1023.2 hPa West 16.1 km/h 30.6 km/h 83 % 0 mm 0 W/m2
01:09 8.2 °C 5.5 °C 1023.2 hPa West 17.7 km/h 32.2 km/h 83 % 0 mm 0 W/m2
01:14 8.2 °C 5.5 °C 1023.2 hPa West 19.3 km/h 25.7 km/h 83 % 0 mm 0 W/m2
01:19 8.2 °C 5.5 °C 1023.2 hPa West 17.7 km/h 29 km/h 83 % 0 mm 0 W/m2
01:24 8.2 °C 5.5 °C 1023.6 hPa West 19.3 km/h 33.8 km/h 83 % 0 mm 0 W/m2
01:29 8.2 °C 5.7 °C 1023.6 hPa West 17.7 km/h 25.7 km/h 84 % 0 mm 0 W/m2
01:34 8.1 °C 5.6 °C 1023.9 hPa West 11.3 km/h 24.1 km/h 84 % 0 mm 0 W/m2
01:39 8.1 °C 5.6 °C 1023.9 hPa West 16.1 km/h 25.7 km/h 84 % 0 mm 0 W/m2
01:44 8.1 °C 5.6 °C 1023.6 hPa West 12.9 km/h 24.1 km/h 84 % 0 mm 0 W/m2
01:49 8.2 °C 5.5 °C 1023.9 hPa West 14.5 km/h 29 km/h 83 % 0 mm 0 W/m2
01:54 8.2 °C 5.5 °C 1023.9 hPa West 14.5 km/h 22.5 km/h 83 % 0 mm 0 W/m2
01:59 8.2 °C 5.5 °C 1023.9 hPa West 14.5 km/h 22.5 km/h 83 % 0 mm 0 W/m2
02:04 8.2 °C 5.5 °C 1023.9 hPa West 14.5 km/h 20.9 km/h 83 % 0 mm 0 W/m2
02:09 8.2 °C 5.5 °C 1023.9 hPa West 16.1 km/h 22.5 km/h 83 % 0 mm 0 W/m2
02:14 8.2 °C 5.5 °C 1023.9 hPa West 16.1 km/h 30.6 km/h 83 % 0 mm 0 W/m2
02:19 8.2 °C 5.5 °C 1023.9 hPa West 14.5 km/h 25.7 km/h 83 % 0 mm 0 W/m2
02:24 8.1 °C 5.4 °C 1023.9 hPa WSW 14.5 km/h 22.5 km/h 83 % 0 mm 0 W/m2
02:30 8.1 °C 5.6 °C 1023.9 hPa West 11.3 km/h 20.9 km/h 84 % 0 mm 0 W/m2
02:35 8 °C 5.4 °C 1024.3 hPa West 12.9 km/h 24.1 km/h 84 % 0 mm 0 W/m2
02:40 8.1 °C 5.6 °C 1024.3 hPa West 11.3 km/h 17.7 km/h 84 % 0 mm 0 W/m2
02:45 8.1 °C 5.6 °C 1023.9 hPa West 14.5 km/h 24.1 km/h 84 % 0 mm 0 W/m2
02:50 8.1 °C 5.6 °C 1023.9 hPa West 14.5 km/h 25.7 km/h 84 % 0 mm 0 W/m2
02:55 8.2 °C 5.7 °C 1023.9 hPa WSW 20.9 km/h 32.2 km/h 84 % 0 mm 0 W/m2
03:00 8.2 °C 5.7 °C 1023.9 hPa West 17.7 km/h 30.6 km/h 84 % 0 mm 0 W/m2
03:05 8.3 °C 5.8 °C 1023.9 hPa West 16.1 km/h 25.7 km/h 84 % 0 mm 0 W/m2
03:10 8.3 °C 5.8 °C 1023.9 hPa West 17.7 km/h 24.1 km/h 84 % 0 mm 0 W/m2
03:15 8.3 °C 5.8 °C 1023.9 hPa West 19.3 km/h 32.2 km/h 84 % 0 mm 0 W/m2
03:20 8.4 °C 5.8 °C 1023.9 hPa WSW 22.5 km/h 37 km/h 84 % 0 mm 0 W/m2
03:25 8.4 °C 5.8 °C 1023.9 hPa West 17.7 km/h 29 km/h 84 % 0 mm 0 W/m2
03:30 8.4 °C 5.8 °C 1023.9 hPa West 14.5 km/h 22.5 km/h 84 % 0 mm 0 W/m2
03:35 8.4 °C 5.8 °C 1023.9 hPa West 16.1 km/h 20.9 km/h 84 % 0 mm 0 W/m2
03:40 8.5 °C 5.9 °C 1024.3 hPa West 14.5 km/h 25.7 km/h 84 % 0 mm 0 W/m2
03:45 8.5 °C 5.9 °C 1023.9 hPa West 24.1 km/h 37 km/h 84 % 0 mm 0 W/m2
03:50 8.6 °C 6.1 °C 1024.3 hPa West 22.5 km/h 29 km/h 84 % 0 mm 0 W/m2
03:55 8.6 °C 6.1 °C 1023.9 hPa West 17.7 km/h 29 km/h 84 % 0 mm 0 W/m2
04:00 8.6 °C 6.1 °C 1023.9 hPa West 19.3 km/h 32.2 km/h 84 % 0 mm 0 W/m2
04:05 8.5 °C 5.9 °C 1023.9 hPa West 14.5 km/h 22.5 km/h 84 % 0 mm 0 W/m2
04:10 8.6 °C 6.1 °C 1023.9 hPa West 16.1 km/h 22.5 km/h 84 % 0 mm 0 W/m2
04:15 8.6 °C 6.2 °C 1023.9 hPa West 16.1 km/h 25.7 km/h 85 % 0 mm 0 W/m2
04:20 8.7 °C 6.3 °C 1023.9 hPa WSW 19.3 km/h 33.8 km/h 85 % 0 mm 0 W/m2
04:25 8.8 °C 6.4 °C 1023.9 hPa WSW 17.7 km/h 32.2 km/h 85 % 0 mm 0 W/m2
04:30 8.8 °C 6.4 °C 1023.9 hPa WSW 14.5 km/h 24.1 km/h 85 % 0 mm 0 W/m2
04:35 8.8 °C 6.4 °C 1023.9 hPa West 20.9 km/h 30.6 km/h 85 % 0 mm 0 W/m2
04:40 8.9 °C 6.3 °C 1023.9 hPa West 19.3 km/h 30.6 km/h 84 % 0 mm 0 W/m2
04:45 8.9 °C 6.3 °C 1023.9 hPa WSW 14.5 km/h 30.6 km/h 84 % 0 mm 0 W/m2
04:50 9 °C 6.3 °C 1023.9 hPa WSW 14.5 km/h 22.5 km/h 83 % 0 mm 0 W/m2
04:55 9.1 °C 6.4 °C 1023.9 hPa SW 16.1 km/h 24.1 km/h 83 % 0 mm 0 W/m2
05:00 9.1 °C 6.4 °C 1023.9 hPa WSW 9.7 km/h 19.3 km/h 83 % 0 mm 0 W/m2
05:05 9 °C 6.1 °C 1023.6 hPa SW 12.9 km/h 25.7 km/h 82 % 0 mm 0 W/m2
05:10 8.9 °C 6 °C 1023.6 hPa SW 16.1 km/h 25.7 km/h 82 % 0 mm 0 W/m2
05:16 8.9 °C 6 °C 1023.6 hPa SW 16.1 km/h 29 km/h 82 % 0 mm 0 W/m2
05:21 8.9 °C 6 °C 1023.6 hPa SW 16.1 km/h 29 km/h 82 % 0 mm 0 W/m2
05:26 8.8 °C 6.1 °C 1023.6 hPa SW 17.7 km/h 29 km/h 83 % 0 mm 0 W/m2
05:31 8.8 °C 6.1 °C 1023.2 hPa SW 16.1 km/h 24.1 km/h 83 % 0 mm 0 W/m2
05:36 8.8 °C 6.2 °C 1023.2 hPa SW 16.1 km/h 29 km/h 84 % 0 mm 0 W/m2
05:41 8.7 °C 6.3 °C 1023.6 hPa SW 14.5 km/h 22.5 km/h 85 % 0 mm 0 W/m2
05:46 8.7 °C 6.3 °C 1023.6 hPa SW 12.9 km/h 20.9 km/h 85 % 0 mm 0 W/m2
05:51 8.6 °C 6.4 °C 1023.6 hPa SW 12.9 km/h 20.9 km/h 86 % 0 mm 0 W/m2
05:56 8.6 °C 6.6 °C 1023.6 hPa SW 16.1 km/h 25.7 km/h 87 % 0 mm 0 W/m2
06:01 8.4 °C 6.3 °C 1023.6 hPa SW 17.7 km/h 32.2 km/h 87 % 0 mm 0 W/m2
06:06 8.4 °C 6.5 °C 1023.6 hPa SW 14.5 km/h 20.9 km/h 88 % 0 mm 0 W/m2
06:11 8.3 °C 6.4 °C 1023.6 hPa SW 12.9 km/h 19.3 km/h 88 % 0 mm 0 W/m2
06:16 8.3 °C 6.6 °C 1023.6 hPa SW 17.7 km/h 25.7 km/h 89 % 0 mm 0 W/m2
06:21 8.3 °C 6.6 °C 1023.2 hPa SW 19.3 km/h 30.6 km/h 89 % 0 mm 0 W/m2
06:26 8.2 °C 6.7 °C 1023.2 hPa SSW 17.7 km/h 25.7 km/h 90 % 0 mm 0 W/m2
06:31 8.2 °C 6.7 °C 1023.2 hPa SW 17.7 km/h 24.1 km/h 90 % 0 mm 0 W/m2
06:36 8.2 °C 6.7 °C 1023.2 hPa SW 14.5 km/h 25.7 km/h 90 % 0 mm 0 W/m2
06:41 8.3 °C 6.9 °C 1023.2 hPa SW 12.9 km/h 20.9 km/h 91 % 0 mm 0 W/m2
06:46 8.4 °C 7 °C 1023.6 hPa SW 17.7 km/h 30.6 km/h 91 % 0 mm 0 W/m2
06:51 8.6 °C 7.2 °C 1023.6 hPa SW 16.1 km/h 24.1 km/h 91 % 0 mm 0 W/m2
06:56 8.6 °C 7.2 °C 1023.6 hPa SW 16.1 km/h 22.5 km/h 91 % 0 mm 0 W/m2
07:01 8.7 °C 7.3 °C 1023.2 hPa SW 16.1 km/h 24.1 km/h 91 % 0 mm 0 W/m2
07:06 8.7 °C 7.5 °C 1023.2 hPa SW 14.5 km/h 25.7 km/h 92 % 0 mm 0 W/m2
07:11 8.7 °C 7.5 °C 1023.2 hPa SW 16.1 km/h 22.5 km/h 92 % 0 mm 0 W/m2
07:16 8.8 °C 7.7 °C 1023.2 hPa SW 12.9 km/h 17.7 km/h 93 % 0 mm 0 W/m2
07:21 8.9 °C 7.8 °C 1023.2 hPa SW 17.7 km/h 30.6 km/h 93 % 0 mm 0 W/m2
07:26 9.1 °C 8 °C 1023.2 hPa SW 14.5 km/h 25.7 km/h 93 % 0 mm 0 W/m2
07:31 9.2 °C 8.1 °C 1023.2 hPa SW 14.5 km/h 22.5 km/h 93 % 0 mm 0 W/m2
07:36 9.4 °C 8.3 °C 1023.2 hPa SW 14.5 km/h 20.9 km/h 93 % 0 mm 0 W/m2
07:41 9.6 °C 8.5 °C 1023.2 hPa SW 12.9 km/h 17.7 km/h 93 % 0 mm 0 W/m2
07:46 9.7 °C 8.6 °C 1023.6 hPa West 9.7 km/h 22.5 km/h 93 % 0 mm 0 W/m2
07:51 10.1 °C 9 °C 1023.6 hPa WSW 14.5 km/h 25.7 km/h 93 % 0 mm 0 W/m2
07:56 10.5 °C 9.4 °C 1023.6 hPa WSW 17.7 km/h 25.7 km/h 93 % 0 mm 0 W/m2
08:01 10.9 °C 9.7 °C 1023.6 hPa WSW 22.5 km/h 40.2 km/h 92 % 0 mm 0 W/m2
08:06 11.2 °C 9.6 °C 1023.6 hPa WSW 19.3 km/h 33.8 km/h 90 % 0 mm 0 W/m2
08:11 11.3 °C 9.6 °C 1023.6 hPa WSW 16.1 km/h 32.2 km/h 89 % 0 mm 5 W/m2
08:16 11.6 °C 9.8 °C 1023.6 hPa WSW 25.7 km/h 37 km/h 89 % 0 mm 7 W/m2
08:22 11.6 °C 9.7 °C 1023.6 hPa WSW 20.9 km/h 43.5 km/h 88 % 0 mm 11 W/m2
08:27 11.7 °C 9.8 °C 1023.6 hPa WSW 24.1 km/h 38.6 km/h 88 % 0 mm 14 W/m2
08:32 11.7 °C 9.6 °C 1023.6 hPa WSW 19.3 km/h 30.6 km/h 87 % 0 mm 14 W/m2
08:37 11.8 °C 9.7 °C 1023.6 hPa WSW 22.5 km/h 37 km/h 87 % 0 mm 16 W/m2
08:42 11.8 °C 9.7 °C 1023.6 hPa WSW 17.7 km/h 30.6 km/h 87 % 0 mm 18 W/m2
08:47 11.8 °C 9.7 °C 1023.6 hPa WSW 22.5 km/h 35.4 km/h 87 % 0 mm 19 W/m2
08:52 11.9 °C 9.8 °C 1023.2 hPa SW 29 km/h 43.5 km/h 87 % 0 mm 23 W/m2
08:57 12 °C 9.9 °C 1023.2 hPa WSW 25.7 km/h 46.7 km/h 87 % 0 mm 26 W/m2
09:02 12.1 °C 9.8 °C 1023.6 hPa WSW 29 km/h 49.9 km/h 86 % 0 mm 26 W/m2
09:07 12.1 °C 9.8 °C 1023.6 hPa WSW 25.7 km/h 40.2 km/h 86 % 0 mm 28 W/m2
09:12 12.1 °C 9.8 °C 1023.6 hPa SW 19.3 km/h 32.2 km/h 86 % 0 mm 32 W/m2
09:17 12 °C 9.7 °C 1023.6 hPa WSW 20.9 km/h 37 km/h 86 % 0 mm 30 W/m2
09:22 11.9 °C 9.6 °C 1023.9 hPa WSW 17.7 km/h 32.2 km/h 86 % 0 mm 28 W/m2
09:27 12 °C 9.7 °C 1023.9 hPa WSW 20.9 km/h 35.4 km/h 86 % 0 mm 32 W/m2
09:32 12 °C 9.7 °C 1023.9 hPa WSW 16.1 km/h 25.7 km/h 86 % 0 mm 33 W/m2
09:37 12 °C 9.7 °C 1023.9 hPa WSW 17.7 km/h 29 km/h 86 % 0 mm 44 W/m2
09:42 12.1 °C 9.8 °C 1023.9 hPa WSW 17.7 km/h 29 km/h 86 % 0 mm 54 W/m2
09:47 12.3 °C 9.8 °C 1023.9 hPa WSW 19.3 km/h 32.2 km/h 85 % 0 mm 58 W/m2
09:52 12.4 °C 9.9 °C 1023.9 hPa WSW 29 km/h 49.9 km/h 85 % 0 mm 60 W/m2
09:57 12.6 °C 9.9 °C 1024.3 hPa WSW 29 km/h 46.7 km/h 84 % 0 mm 70 W/m2
10:02 12.6 °C 9.9 °C 1024.3 hPa WSW 20.9 km/h 32.2 km/h 84 % 0 mm 76 W/m2
10:07 12.7 °C 10.1 °C 1024.3 hPa WSW 20.9 km/h 33.8 km/h 84 % 0 mm 156 W/m2
10:12 12.8 °C 10 °C 1024.3 hPa West 32.2 km/h 46.7 km/h 83 % 0 mm 130 W/m2
10:17 12.9 °C 10.1 °C 1024.3 hPa WSW 24.1 km/h 41.8 km/h 83 % 0 mm 105 W/m2
10:22 13 °C 10 °C 1024.6 hPa WSW 29 km/h 45.1 km/h 82 % 0 mm 63 W/m2
10:27 12.9 °C 10.1 °C 1024.6 hPa WSW 22.5 km/h 41.8 km/h 83 % 0 mm 72 W/m2
10:32 12.8 °C 10 °C 1024.6 hPa WSW 32.2 km/h 43.5 km/h 83 % 0 mm 63 W/m2
10:37 12.8 °C 10 °C 1024.6 hPa WSW 27.4 km/h 46.7 km/h 83 % 0 mm 93 W/m2
10:42 12.8 °C 10 °C 1024.6 hPa WSW 27.4 km/h 43.5 km/h 83 % 0 mm 90 W/m2
10:47 12.8 °C 10 °C 1024.6 hPa West 25.7 km/h 38.6 km/h 83 % 0 mm 167 W/m2
10:52 12.9 °C 10.1 °C 1024.6 hPa WSW 27.4 km/h 49.9 km/h 83 % 0 mm 130 W/m2
10:57 12.9 °C 9.9 °C 1024.6 hPa WSW 24.1 km/h 43.5 km/h 82 % 0 mm 72 W/m2
11:02 12.9 °C 10.1 °C 1024.6 hPa WSW 25.7 km/h 43.5 km/h 83 % 0 mm 272 W/m2
11:07 13.1 °C 10.3 °C 1024.6 hPa WSW 24.1 km/h 40.2 km/h 83 % 0 mm 292 W/m2
11:13 13.2 °C 10.2 °C 1024.6 hPa WSW 24.1 km/h 45.1 km/h 82 % 0 mm 220 W/m2
11:18 13.2 °C 10.2 °C 1024.6 hPa WSW 25.7 km/h 38.6 km/h 82 % 0 mm 325 W/m2
11:23 13.2 °C 10.2 °C 1024.6 hPa WSW 29 km/h 43.5 km/h 82 % 0 mm 139 W/m2
11:27 13.2 °C 10.2 °C 1024.6 hPa WSW 20.9 km/h 37 km/h 82 % 0 mm 241 W/m2
11:32 13.3 °C 10.3 °C 1024.6 hPa WSW 25.7 km/h 40.2 km/h 82 % 0 mm 216 W/m2
11:37 13.5 °C 10.5 °C 1024.6 hPa WSW 24.1 km/h 41.8 km/h 82 % 0 mm 178 W/m2
11:43 13.6 °C 10.4 °C 1024.6 hPa West 32.2 km/h 46.7 km/h 81 % 0 mm 192 W/m2
11:48 13.8 °C 10.6 °C 1024.6 hPa WSW 24.1 km/h 37 km/h 81 % 0 mm 387 W/m2
11:53 14 °C 10.6 °C 1024.9 hPa WSW 22.5 km/h 32.2 km/h 80 % 0 mm 497 W/m2
11:58 14.2 °C 10.8 °C 1024.9 hPa West 29 km/h 48.3 km/h 80 % 0 mm 334 W/m2
12:03 14.3 °C 10.7 °C 1024.9 hPa WSW 30.6 km/h 46.7 km/h 79 % 0 mm 287 W/m2
12:08 14.3 °C 10.9 °C 1024.6 hPa WSW 25.7 km/h 45.1 km/h 80 % 0 mm 408 W/m2
12:13 14.3 °C 10.7 °C 1024.6 hPa WSW 30.6 km/h 49.9 km/h 79 % 0 mm 172 W/m2
12:18 14.1 °C 10.7 °C 1024.6 hPa WSW 22.5 km/h 33.8 km/h 80 % 0 mm 294 W/m2
12:23 14.2 °C 11 °C 1024.6 hPa West 24.1 km/h 41.8 km/h 81 % 0 mm 394 W/m2
12:28 14.4 °C 11.2 °C 1024.6 hPa WSW 22.5 km/h 40.2 km/h 81 % 0 mm 538 W/m2
12:33 14.4 °C 11 °C 1024.9 hPa West 24.1 km/h 41.8 km/h 80 % 0 mm 446 W/m2
12:38 14.4 °C 11.2 °C 1024.9 hPa West 25.7 km/h 41.8 km/h 81 % 0 mm 357 W/m2
12:43 14.2 °C 11.2 °C 1024.9 hPa WSW 25.7 km/h 40.2 km/h 82 % 0 mm 360 W/m2
12:48 14.1 °C 11.1 °C 1024.9 hPa WSW 20.9 km/h 40.2 km/h 82 % 0 mm 265 W/m2
12:53 13.9 °C 11.2 °C 1024.9 hPa WSW 20.9 km/h 35.4 km/h 84 % 0 mm 366 W/m2
12:58 13.7 °C 11.1 °C 1024.9 hPa West 24.1 km/h 33.8 km/h 84 % 0 mm 209 W/m2
13:03 13.6 °C 11.1 °C 1024.9 hPa WSW 20.9 km/h 32.2 km/h 85 % 0 mm 200 W/m2
13:08 13.4 °C 11.1 °C 1024.9 hPa WSW 27.4 km/h 41.8 km/h 86 % 0 mm 121 W/m2
13:13 13.3 °C 11.2 °C 1024.9 hPa WSW 24.1 km/h 33.8 km/h 87 % 0 mm 246 W/m2
13:18 13.2 °C 11.1 °C 1024.9 hPa WSW 22.5 km/h 38.6 km/h 87 % 0 mm 281 W/m2
13:23 13.3 °C 11.3 °C 1024.9 hPa West 20.9 km/h 33.8 km/h 88 % 0 mm 200 W/m2
13:28 13.2 °C 11.1 °C 1024.9 hPa WSW 14.5 km/h 24.1 km/h 87 % 0 mm 134 W/m2
13:33 13.2 °C 11.1 °C 1024.9 hPa WSW 19.3 km/h 30.6 km/h 87 % 0 mm 90 W/m2
13:38 13.1 °C 11 °C 1024.9 hPa WSW 22.5 km/h 41.8 km/h 87 % 0 mm 76 W/m2
13:43 13.1 °C 11 °C 1024.9 hPa WSW 24.1 km/h 40.2 km/h 87 % 0 mm 91 W/m2
13:48 13.1 °C 11 °C 1024.9 hPa WSW 22.5 km/h 33.8 km/h 87 % 0 mm 79 W/m2
13:53 13.1 °C 11 °C 1024.6 hPa WSW 19.3 km/h 35.4 km/h 87 % 0 mm 102 W/m2
13:58 13.2 °C 10.9 °C 1024.9 hPa WSW 22.5 km/h 33.8 km/h 86 % 0 mm 116 W/m2
14:03 13.2 °C 11.1 °C 1024.9 hPa West 27.4 km/h 38.6 km/h 87 % 0 mm 123 W/m2
14:08 13.2 °C 11.1 °C 1024.6 hPa WSW 19.3 km/h 30.6 km/h 87 % 0 mm 144 W/m2
14:13 13.2 °C 11.1 °C 1024.6 hPa WSW 19.3 km/h 32.2 km/h 87 % 0 mm 135 W/m2
14:18 13.3 °C 11 °C 1024.6 hPa WSW 19.3 km/h 29 km/h 86 % 0 mm 139 W/m2
14:23 13.3 °C 11 °C 1024.6 hPa WSW 17.7 km/h 29 km/h 86 % 0 mm 111 W/m2
14:29 13.2 °C 10.9 °C 1024.9 hPa WSW 20.9 km/h 35.4 km/h 86 % 0 mm 95 W/m2
14:34 13.2 °C 11.1 °C 1024.6 hPa West 20.9 km/h 30.6 km/h 87 % 0 mm 54 W/m2
14:39 13.1 °C 11 °C 1024.9 hPa WSW 17.7 km/h 32.2 km/h 87 % 0 mm 46 W/m2
14:44 13.2 °C 10.9 °C 1024.9 hPa West 25.7 km/h 41.8 km/h 86 % 0 mm 58 W/m2
14:49 13.3 °C 10.8 °C 1024.6 hPa West 20.9 km/h 35.4 km/h 85 % 0 mm 53 W/m2
14:54 13.3 °C 10.7 °C 1024.9 hPa West 22.5 km/h 40.2 km/h 84 % 0 mm 47 W/m2
14:59 13.4 °C 10.8 °C 1024.6 hPa West 20.9 km/h 29 km/h 84 % 0 mm 32 W/m2
15:04 13.4 °C 10.8 °C 1024.6 hPa WSW 20.9 km/h 32.2 km/h 84 % 0 mm 54 W/m2
15:09 13.4 °C 10.8 °C 1024.6 hPa WSW 22.5 km/h 35.4 km/h 84 % 0 mm 35 W/m2
15:14 13.4 °C 10.8 °C 1024.9 hPa WSW 16.1 km/h 29 km/h 84 % 0 mm 23 W/m2
15:19 13.3 °C 10.7 °C 1024.9 hPa WSW 12.9 km/h 25.7 km/h 84 % 0 mm 25 W/m2
15:24 13.3 °C 10.7 °C 1024.9 hPa WSW 12.9 km/h 24.1 km/h 84 % 0 mm 30 W/m2
15:29 13.2 °C 10.6 °C 1024.9 hPa WSW 20.9 km/h 33.8 km/h 84 % 0 mm 30 W/m2
15:34 13.2 °C 10.4 °C 1024.9 hPa WSW 16.1 km/h 25.7 km/h 83 % 0 mm 32 W/m2
15:39 13.3 °C 10.5 °C 1024.9 hPa WSW 11.3 km/h 19.3 km/h 83 % 0 mm 33 W/m2
15:44 13.2 °C 10.4 °C 1024.9 hPa WSW 16.1 km/h 30.6 km/h 83 % 0 mm 35 W/m2
15:49 13.1 °C 10.3 °C 1024.9 hPa WSW 17.7 km/h 25.7 km/h 83 % 0 mm 19 W/m2
15:54 13 °C 10.3 °C 1024.9 hPa West 14.5 km/h 22.5 km/h 84 % 0 mm 14 W/m2
15:59 12.9 °C 10.3 °C 1024.9 hPa West 17.7 km/h 29 km/h 84 % 0 mm 14 W/m2
16:04 12.8 °C 10.2 °C 1024.9 hPa West 16.1 km/h 29 km/h 84 % 0 mm 18 W/m2
16:09 12.8 °C 10.2 °C 1024.9 hPa West 19.3 km/h 30.6 km/h 84 % 0 mm 30 W/m2
16:14 12.8 °C 10.2 °C 1024.9 hPa WSW 16.1 km/h 32.2 km/h 84 % 0 mm 18 W/m2
16:19 12.7 °C 10.1 °C 1024.9 hPa West 22.5 km/h 37 km/h 84 % 0 mm 7 W/m2
16:24 12.6 °C 9.9 °C 1024.9 hPa West 25.7 km/h 38.6 km/h 84 % 0 mm 5 W/m2
16:29 12.6 °C 9.9 °C 1024.9 hPa West 19.3 km/h 33.8 km/h 84 % 0 mm 0 W/m2
16:34 12.6 °C 9.9 °C 1024.9 hPa West 19.3 km/h 32.2 km/h 84 % 0 mm 0 W/m2
16:39 12.6 °C 9.9 °C 1024.9 hPa West 22.5 km/h 37 km/h 84 % 0 mm 0 W/m2
16:44 12.5 °C 9.9 °C 1024.9 hPa West 17.7 km/h 35.4 km/h 84 % 0 mm 0 W/m2
16:49 12.4 °C 9.8 °C 1024.9 hPa West 19.3 km/h 32.2 km/h 84 % 0 mm 0 W/m2
16:54 12.4 °C 9.8 °C 1024.9 hPa West 16.1 km/h 32.2 km/h 84 % 0 mm 0 W/m2
16:59 12.4 °C 9.8 °C 1024.9 hPa West 11.3 km/h 17.7 km/h 84 % 0 mm 0 W/m2
17:04 12.3 °C 9.7 °C 1024.9 hPa West 12.9 km/h 20.9 km/h 84 % 0 mm 0 W/m2
17:09 12.3 °C 9.5 °C 1024.6 hPa West 17.7 km/h 35.4 km/h 83 % 0 mm 0 W/m2
17:14 12.4 °C 9.6 °C 1024.6 hPa West 17.7 km/h 29 km/h 83 % 0 mm 0 W/m2
17:19 12.3 °C 9.5 °C 1024.6 hPa West 14.5 km/h 25.7 km/h 83 % 0 mm 0 W/m2
17:24 12.4 °C 9.6 °C 1024.6 hPa West 17.7 km/h 29 km/h 83 % 0 mm 0 W/m2
17:29 12.4 °C 9.6 °C 1024.6 hPa West 16.1 km/h 24.1 km/h 83 % 0 mm 0 W/m2
17:34 12.4 °C 9.4 °C 1024.6 hPa WSW 16.1 km/h 24.1 km/h 82 % 0 mm 0 W/m2
17:39 12.4 °C 9.4 °C 1024.6 hPa WSW 14.5 km/h 25.7 km/h 82 % 0 mm 0 W/m2
17:44 12.3 °C 9.3 °C 1024.6 hPa West 9.7 km/h 14.5 km/h 82 % 0 mm 0 W/m2
17:49 12.3 °C 9.3 °C 1024.6 hPa WSW 14.5 km/h 29 km/h 82 % 0 mm 0 W/m2
17:55 12.3 °C 9.3 °C 1024.6 hPa West 12.9 km/h 24.1 km/h 82 % 0 mm 0 W/m2
18:00 12.3 °C 9.3 °C 1024.6 hPa West 12.9 km/h 22.5 km/h 82 % 0 mm 0 W/m2
18:05 12.2 °C 9.2 °C 1024.6 hPa West 12.9 km/h 19.3 km/h 82 % 0 mm 0 W/m2
18:10 12.2 °C 9.2 °C 1024.6 hPa WSW 17.7 km/h 32.2 km/h 82 % 0 mm 0 W/m2
18:15 12.2 °C 9.2 °C 1024.6 hPa West 16.1 km/h 25.7 km/h 82 % 0 mm 0 W/m2
18:20 12.2 °C 9.2 °C 1024.6 hPa West 12.9 km/h 19.3 km/h 82 % 0 mm 0 W/m2
18:25 12.1 °C 9.1 °C 1024.6 hPa West 17.7 km/h 32.2 km/h 82 % 0 mm 0 W/m2
18:30 12.1 °C 9.1 °C 1024.3 hPa WSW 14.5 km/h 22.5 km/h 82 % 0 mm 0 W/m2
18:35 12.1 °C 9.1 °C 1024.6 hPa West 11.3 km/h 16.1 km/h 82 % 0 mm 0 W/m2
18:40 12 °C 9 °C 1024.3 hPa WSW 12.9 km/h 20.9 km/h 82 % 0 mm 0 W/m2
18:45 11.9 °C 9.1 °C 1024.3 hPa WSW 9.7 km/h 16.1 km/h 83 % 0 mm 0 W/m2
18:50 11.9 °C 9.1 °C 1024.3 hPa WSW 6.4 km/h 16.1 km/h 83 % 0 mm 0 W/m2
18:55 11.9 °C 9.1 °C 1024.3 hPa SW 4.8 km/h 16.1 km/h 83 % 0 mm 0 W/m2
19:00 11.8 °C 8.8 °C 1024.6 hPa WSW 14.5 km/h 20.9 km/h 82 % 0 mm 0 W/m2
19:05 11.8 °C 8.8 °C 1024.6 hPa WSW 14.5 km/h 24.1 km/h 82 % 0 mm 0 W/m2
19:10 11.8 °C 8.8 °C 1024.3 hPa WSW 11.3 km/h 20.9 km/h 82 % 0 mm 0 W/m2
19:15 11.7 °C 8.7 °C 1024.3 hPa West 11.3 km/h 29 km/h 82 % 0 mm 0 W/m2
19:20 11.7 °C 8.7 °C 1024.3 hPa West 17.7 km/h 33.8 km/h 82 % 0 mm 0 W/m2
19:25 11.7 °C 8.7 °C 1024.3 hPa WSW 20.9 km/h 37 km/h 82 % 0 mm 0 W/m2
19:30 11.6 °C 8.6 °C 1024.3 hPa WSW 24.1 km/h 40.2 km/h 82 % 0 mm 0 W/m2
19:35 11.6 °C 8.6 °C 1024.3 hPa WSW 16.1 km/h 25.7 km/h 82 % 0 mm 0 W/m2
19:40 11.6 °C 8.4 °C 1024.3 hPa WSW 14.5 km/h 29 km/h 81 % 0 mm 0 W/m2
19:45 11.6 °C 8.4 °C 1024.6 hPa WSW 17.7 km/h 29 km/h 81 % 0 mm 0 W/m2
19:50 11.5 °C 8.3 °C 1024.6 hPa WSW 16.1 km/h 22.5 km/h 81 % 0 mm 0 W/m2
19:55 11.5 °C 8.3 °C 1024.3 hPa WSW 12.9 km/h 17.7 km/h 81 % 0 mm 0 W/m2
20:00 11.5 °C 8.3 °C 1024.3 hPa WSW 12.9 km/h 19.3 km/h 81 % 0 mm 0 W/m2
20:05 11.4 °C 8.3 °C 1024.3 hPa WSW 12.9 km/h 19.3 km/h 81 % 0 mm 0 W/m2
20:10 11.4 °C 8.3 °C 1024.3 hPa WSW 16.1 km/h 25.7 km/h 81 % 0 mm 0 W/m2
20:15 11.4 °C 8.3 °C 1023.9 hPa WSW 16.1 km/h 32.2 km/h 81 % 0 mm 0 W/m2
20:20 11.4 °C 8.3 °C 1024.3 hPa West 20.9 km/h 33.8 km/h 81 % 0 mm 0 W/m2
20:25 11.4 °C 8.3 °C 1023.9 hPa West 14.5 km/h 22.5 km/h 81 % 0 mm 0 W/m2
20:30 11.4 °C 8.1 °C 1023.9 hPa WSW 9.7 km/h 16.1 km/h 80 % 0 mm 0 W/m2
20:35 11.4 °C 8.1 °C 1023.6 hPa SW 19.3 km/h 30.6 km/h 80 % 0 mm 0 W/m2
20:40 11.3 °C 8.2 °C 1023.9 hPa WSW 12.9 km/h 25.7 km/h 81 % 0 mm 0 W/m2
20:45 11.3 °C 8 °C 1023.6 hPa WSW 14.5 km/h 20.9 km/h 80 % 0 mm 0 W/m2
20:51 11.3 °C 8.2 °C 1023.6 hPa WSW 17.7 km/h 30.6 km/h 81 % 0 mm 0 W/m2
20:56 11.3 °C 8.2 °C 1023.6 hPa WSW 16.1 km/h 30.6 km/h 81 % 0 mm 0 W/m2
21:01 11.3 °C 8.2 °C 1023.6 hPa WSW 16.1 km/h 30.6 km/h 81 % 0 mm 0 W/m2
21:06 11.3 °C 8.2 °C 1023.6 hPa WSW 14.5 km/h 20.9 km/h 81 % 0 mm 0 W/m2
21:11 11.3 °C 8.2 °C 1023.6 hPa WSW 27.4 km/h 45.1 km/h 81 % 0 mm 0 W/m2
21:16 11.3 °C 8.2 °C 1023.6 hPa West 19.3 km/h 29 km/h 81 % 0 mm 0 W/m2
21:21 11.2 °C 8.1 °C 1023.6 hPa West 19.3 km/h 35.4 km/h 81 % 0 mm 0 W/m2
21:26 11.2 °C 8.1 °C 1023.2 hPa West 19.3 km/h 43.5 km/h 81 % 0 mm 0 W/m2
21:31 11.2 °C 8.1 °C 1023.2 hPa WSW 24.1 km/h 41.8 km/h 81 % 0 mm 0 W/m2
21:36 11.1 °C 7.9 °C 1023.2 hPa West 17.7 km/h 30.6 km/h 81 % 0 mm 0 W/m2
21:41 11.1 °C 7.9 °C 1023.2 hPa WSW 22.5 km/h 35.4 km/h 81 % 0 mm 0 W/m2
21:46 11.1 °C 7.9 °C 1022.9 hPa WSW 25.7 km/h 40.2 km/h 81 % 0 mm 0 W/m2
21:51 10.9 °C 7.6 °C 1022.6 hPa WSW 29 km/h 49.9 km/h 80 % 0 mm 0 W/m2
21:56 10.9 °C 7.8 °C 1022.6 hPa West 22.5 km/h 37 km/h 81 % 0 mm 0 W/m2
22:01 10.8 °C 7.7 °C 1022.6 hPa WSW 27.4 km/h 46.7 km/h 81 % 0 mm 0 W/m2
22:06 10.8 °C 7.7 °C 1022.6 hPa West 30.6 km/h 53.1 km/h 81 % 0 mm 0 W/m2
22:11 10.7 °C 7.4 °C 1022.6 hPa WSW 30.6 km/h 46.7 km/h 80 % 0 mm 0 W/m2
22:16 10.7 °C 7.4 °C 1022.6 hPa WSW 25.7 km/h 45.1 km/h 80 % 0 mm 0 W/m2
22:21 10.7 °C 7.4 °C 1022.2 hPa WSW 25.7 km/h 37 km/h 80 % 0 mm 0 W/m2
22:27 10.6 °C 7.3 °C 1022.2 hPa West 24.1 km/h 38.6 km/h 80 % 0 mm 0 W/m2
22:32 10.6 °C 7.3 °C 1022.2 hPa West 27.4 km/h 49.9 km/h 80 % 0 mm 0 W/m2
22:37 10.6 °C 7.3 °C 1022.2 hPa West 29 km/h 41.8 km/h 80 % 0 mm 0 W/m2
22:42 10.6 °C 7.3 °C 1021.9 hPa WSW 35.4 km/h 54.7 km/h 80 % 0 mm 0 W/m2
22:47 10.6 °C 7.3 °C 1021.9 hPa WSW 27.4 km/h 38.6 km/h 80 % 0 mm 0 W/m2
22:52 10.5 °C 7.2 °C 1021.9 hPa West 30.6 km/h 43.5 km/h 80 % 0 mm 0 W/m2
22:57 10.4 °C 7.1 °C 1021.9 hPa West 29 km/h 48.3 km/h 80 % 0 mm 0 W/m2
23:02 10.4 °C 7.1 °C 1021.9 hPa West 32.2 km/h 53.1 km/h 80 % 0 mm 0 W/m2
23:07 10.4 °C 7.1 °C 1021.9 hPa WSW 33.8 km/h 54.7 km/h 80 % 0 mm 0 W/m2
23:12 10.4 °C 7.1 °C 1021.9 hPa West 27.4 km/h 40.2 km/h 80 % 0 mm 0 W/m2
23:17 10.4 °C 7.1 °C 1021.9 hPa West 29 km/h 43.5 km/h 80 % 0 mm 0 W/m2
23:22 10.4 °C 7.1 °C 1021.6 hPa WSW 27.4 km/h 48.3 km/h 80 % 0 mm 0 W/m2
23:27 10.5 °C 7.2 °C 1021.6 hPa West 29 km/h 54.7 km/h 80 % 0 mm 0 W/m2
23:32 10.5 °C 7.2 °C 1021.6 hPa WSW 30.6 km/h 53.1 km/h 80 % 0 mm 0 W/m2
23:37 10.4 °C 7.1 °C 1021.6 hPa WSW 25.7 km/h 41.8 km/h 80 % 0 mm 0 W/m2
23:42 10.4 °C 7.1 °C 1021.2 hPa WSW 27.4 km/h 48.3 km/h 80 % 0 mm 0 W/m2
23:47 10.5 °C 7.2 °C 1021.2 hPa WSW 33.8 km/h 56.3 km/h 80 % 0 mm 0 W/m2
23:52 10.5 °C 7.2 °C 1021.2 hPa West 38.6 km/h 56.3 km/h 80 % 0 mm 0 W/m2
23:57 10.6 °C 7.3 °C 1021.2 hPa West 32.2 km/h 54.7 km/h 80 % 0 mm 0 W/m2
Delerius-Weather
Compliments of Weather Underground - 2.25 mb

Data updates at regular intervals.